Terminal Aerodrome Forecast
Issued by NWS Charleston, SC

Current Version | Previous Version | Text Only | Print | Product List | Glossary Off
Versions: 1 2 3 4 5 6 7 8 9 10 11 12 13

000
FTUS42 KCHS 041126
TAFCHS
TAF
KCHS 041126Z 0412/0512 VRB05KT P6SM SCT080
     FM041700 13012KT P6SM SCT050
     FM050200 VRB04KT P6SM SKC=

USA.gov is the U.S. government's official web portal to all federal, state and local government web resources and services.